Time;durP1;ratioP1;P1;durP2;ratioP2;P2;SDS_P1;SDS_P2;PMS_P1;PMS_P2;Temp;Humidity;BMP_temperature;BMP_pressure;BME280_temperature;BME280_humidity;BME280_pressure;Samples;Min_cycle;Max_cycle;Signal;HPM_P1;HPM_P2
2023/12/27 00:01:57;;;;;;;20.67;7.63;;;;;;;1.45;100.00;102128.13;5012759;28;20496;-76
2023/12/27 00:04:42;;;;;;;11.00;5.35;;;;;;;1.44;100.00;102126.38;5002601;28;20038;-75
2023/12/27 00:07:28;;;;;;;15.88;4.50;;;;;;;1.43;100.00;102127.25;4999980;28;20052;-75
2023/12/27 00:10:14;;;;;;;9.13;4.00;;;;;;;1.41;100.00;102122.84;5011103;28;20049;-76
2023/12/27 00:13:00;;;;;;;6.68;3.72;;;;;;;1.40;100.00;102135.00;5004761;28;20111;-75
2023/12/27 00:15:45;;;;;;;8.60;3.55;;;;;;;1.39;100.00;102137.59;5009525;28;20052;-76
2023/12/27 00:18:31;;;;;;;10.48;4.25;;;;;;;1.38;100.00;102131.50;5010709;28;20045;-76
2023/12/27 00:21:17;;;;;;;10.63;4.05;;;;;;;1.38;100.00;102131.50;5010013;28;20045;-76
2023/12/27 00:24:03;;;;;;;7.78;3.42;;;;;;;1.38;100.00;102125.41;5009135;28;20053;-75
2023/12/27 00:26:48;;;;;;;5.93;2.50;;;;;;;1.38;100.00;102133.22;5010370;28;20045;-75
2023/12/27 00:29:34;;;;;;;12.27;2.60;;;;;;;1.37;100.00;102129.75;5008997;28;20041;-75
2023/12/27 00:32:20;;;;;;;6.80;2.35;;;;;;;1.35;100.00;102126.22;5010169;28;20045;-76
2023/12/27 00:35:05;;;;;;;8.52;2.33;;;;;;;1.35;100.00;102115.78;5010060;28;20049;-76
2023/12/27 00:37:51;;;;;;;6.10;2.17;;;;;;;1.35;100.00;102107.97;5010612;28;20042;-76
2023/12/27 00:40:37;;;;;;;6.55;2.17;;;;;;;1.35;100.00;102126.22;4990089;28;20045;-76
2023/12/27 00:43:23;;;;;;;5.57;2.70;;;;;;;1.35;100.00;102121.00;5007239;28;20053;-76
2023/12/27 00:46:09;;;;;;;6.47;3.60;;;;;;;1.33;100.00;102113.19;5009706;28;20044;-76
2023/12/27 00:48:54;;;;;;;7.95;4.70;;;;;;;1.33;100.00;102114.91;5007423;28;20045;-76
2023/12/27 00:51:44;;;;;;;17.15;5.30;;;;;;;1.31;100.00;102120.09;5010064;28;20052;-75
2023/12/27 00:54:29;;;;;;;11.10;4.90;;;;;;;1.31;100.00;102119.25;5005659;28;20042;-75
2023/12/27 00:57:15;;;;;;;11.02;4.55;;;;;;;1.32;100.00;102121.00;5008360;28;20045;-76
2023/12/27 01:00:01;;;;;;;10.55;3.85;;;;;;;1.31;100.00;102114.03;5006110;28;20038;-75
2023/12/27 01:02:46;;;;;;;8.20;3.58;;;;;;;1.31;100.00;102125.31;5009504;28;20158;-76
2023/12/27 01:05:32;;;;;;;11.77;3.20;;;;;;;1.33;100.00;102123.63;5006682;28;20080;-75
2023/12/27 01:08:18;;;;;;;6.70;3.10;;;;;;;1.33;100.00;102123.63;5008520;28;20332;-75
2023/12/27 01:11:04;;;;;;;6.88;2.42;;;;;;;1.33;100.00;102122.72;5007973;28;20045;-75
2023/12/27 01:13:50;;;;;;;12.52;2.90;;;;;;;1.32;100.00;102121.84;5007170;28;20887;-76
2023/12/27 01:16:36;;;;;;;8.88;2.40;;;;;;;1.33;100.00;102126.25;5007606;28;20042;-76
2023/12/27 01:19:21;;;;;;;6.03;2.35;;;;;;;1.33;100.00;102127.97;5006091;28;20420;-76
2023/12/27 01:22:07;;;;;;;6.72;2.30;;;;;;;1.30;100.00;102126.19;5007298;28;23209;-76
2023/12/27 01:24:53;;;;;;;5.80;2.28;;;;;;;1.30;100.00;102123.56;5007062;28;20128;-75
2023/12/27 01:27:39;;;;;;;4.63;2.30;;;;;;;1.30;100.00;102127.94;4996081;28;20046;-76
2023/12/27 01:30:24;;;;;;;9.93;3.13;;;;;;;1.28;100.00;102125.28;4998730;28;20054;-76
2023/12/27 01:33:10;;;;;;;6.55;2.53;;;;;;;1.26;100.00;102126.13;5008328;28;20065;-76
2023/12/27 01:35:56;;;;;;;9.68;2.80;;;;;;;1.25;100.00;102127.84;5006477;28;20049;-76
2023/12/27 01:38:42;;;;;;;9.35;2.70;;;;;;;1.24;100.00;102133.91;4999506;28;20061;-76
2023/12/27 01:41:28;;;;;;;6.90;2.97;;;;;;;1.26;100.00;102126.13;5007706;28;20819;-76
2023/12/27 01:44:13;;;;;;;4.70;2.60;;;;;;;1.28;100.00;102124.41;5005417;28;20060;-76
2023/12/27 01:46:59;;;;;;;6.15;2.10;;;;;;;1.28;100.00;102119.19;5006401;28;20038;-76
2023/12/27 01:49:45;;;;;;;6.80;2.45;;;;;;;1.29;100.00;102120.94;4988090;28;20052;-76
2023/12/27 01:52:31;;;;;;;8.68;2.20;;;;;;;1.26;100.00;102116.56;5005870;28;20635;-76
2023/12/27 01:55:17;;;;;;;12.98;2.42;;;;;;;1.25;100.00;102121.75;5007183;28;20045;-75
2023/12/27 01:58:03;;;;;;;5.40;2.30;;;;;;;1.22;100.00;102128.66;4989767;28;20042;-75
2023/12/27 02:00:49;;;;;;;8.70;2.85;;;;;;;1.19;100.00;102120.81;5001529;28;21984;-75
2023/12/27 02:03:34;;;;;;;6.82;2.33;;;;;;;1.17;100.00;102117.31;5008935;28;20050;-75
2023/12/27 02:06:21;;;;;;;4.07;2.03;;;;;;;1.15;100.00;102124.22;5002379;28;20037;-75
2023/12/27 02:09:07;;;;;;;6.32;2.15;;;;;;;1.12;100.00;102124.19;5005302;28;20111;-76
2023/12/27 02:11:53;;;;;;;6.38;2.15;;;;;;;1.11;100.00;102111.13;4986254;28;20061;-75
2023/12/27 02:14:38;;;;;;;6.07;2.70;;;;;;;1.08;100.00;102114.56;4990300;28;20576;-76
2023/12/27 02:17:28;;;;;;;10.10;2.80;;;;;;;1.06;100.00;102109.34;5004262;28;20038;-76
2023/12/27 02:20:14;;;;;;;6.10;2.50;;;;;;;1.04;100.00;102112.78;4988472;28;20118;-75
2023/12/27 02:23:04;;;;;;;8.85;2.85;;;;;;;1.04;100.00;102104.94;4990516;28;20054;-76
2023/12/27 02:25:52;;;;;;;5.57;2.35;;;;;;;1.04;100.00;102104.94;5003894;28;20464;-76
2023/12/27 02:28:37;;;;;;;4.20;2.50;;;;;;;1.09;100.00;102108.47;5006184;28;20051;-75
2023/12/27 02:31:23;;;;;;;6.03;2.65;;;;;;;1.16;100.00;102115.56;4996922;28;20044;-76
2023/12/27 02:34:09;;;;;;;5.20;2.70;;;;;;;1.20;100.00;102104.28;5009546;28;20523;-76
2023/12/27 02:36:55;;;;;;;9.48;2.70;;;;;;;1.27;100.00;102107.00;5009929;28;20045;-76
2023/12/27 02:39:40;;;;;;;9.27;2.80;;;;;;;1.31;100.00;102103.59;5010588;28;20057;-75
2023/12/27 02:42:26;;;;;;;7.00;2.65;;;;;;;1.33;100.00;102100.13;5011013;28;20044;-75
2023/12/27 02:45:12;;;;;;;6.10;2.25;;;;;;;1.36;100.00;102091.44;5011302;28;20049;-75
2023/12/27 02:47:58;;;;;;;8.00;2.80;;;;;;;1.39;100.00;102086.28;5012825;28;20048;-75
2023/12/27 02:50:44;;;;;;;5.30;2.30;;;;;;;1.39;100.00;102081.06;5009667;28;20529;-75
2023/12/27 02:53:30;;;;;;;10.43;2.72;;;;;;;1.39;100.00;102068.00;5009326;28;20061;-76
2023/12/27 02:56:16;;;;;;;6.28;2.35;;;;;;;1.39;100.00;102069.72;5009369;28;20060;-75
2023/12/27 02:59:02;;;;;;;7.18;2.78;;;;;;;1.40;100.00;102063.66;5009769;28;20037;-75
2023/12/27 03:01:47;;;;;;;4.53;2.20;;;;;;;1.39;100.00;102062.78;4998932;28;20053;-75
2023/12/27 03:04:33;;;;;;;5.90;2.40;;;;;;;1.38;100.00;102058.44;5011098;28;20052;-76
2023/12/27 03:07:19;;;;;;;5.25;2.65;;;;;;;1.38;100.00;102063.66;4992301;28;20053;-76
2023/12/27 03:10:05;;;;;;;5.30;2.60;;;;;;;1.35;100.00;102047.94;5008277;28;21094;-76
2023/12/27 03:12:51;;;;;;;6.85;2.47;;;;;;;1.34;100.00;102054.03;4998211;28;20062;-76
2023/12/27 03:15:37;;;;;;;8.60;2.75;;;;;;;1.35;100.00;102048.84;5009149;28;20148;-75
2023/12/27 03:18:23;;;;;;;4.40;2.50;;;;;;;1.36;100.00;102039.25;5009430;28;20084;-76
2023/12/27 03:21:09;;;;;;;9.65;2.53;;;;;;;1.36;100.00;102041.84;5009409;28;20049;-76
2023/12/27 03:23:54;;;;;;;8.50;2.35;;;;;;;1.32;100.00;102038.34;5009259;28;20511;-76
2023/12/27 03:26:40;;;;;;;6.10;2.50;;;;;;;1.34;100.00;102031.44;5009670;28;20178;-75
2023/12/27 03:29:26;;;;;;;5.97;2.30;;;;;;;1.32;100.00;102038.34;5007722;28;20505;-76
2023/12/27 03:32:12;;;;;;;7.55;2.70;;;;;;;1.33;100.00;102047.06;5007214;28;20046;-76
2023/12/27 03:34:57;;;;;;;4.70;2.63;;;;;;;1.32;100.00;102047.91;5008998;28;20064;-75
2023/12/27 03:37:45;;;;;;;8.15;2.50;;;;;;;1.30;100.00;102045.28;5000915;28;20047;-75
2023/12/27 03:40:30;;;;;;;3.88;2.53;;;;;;;1.30;100.00;102045.28;5008293;28;20049;-76
2023/12/27 03:43:16;;;;;;;13.43;2.88;;;;;;;1.32;100.00;102037.47;5009689;28;20710;-76
2023/12/27 03:46:02;;;;;;;3.88;2.65;;;;;;;1.34;100.00;102020.09;5006683;28;20045;-75
2023/12/27 03:48:48;;;;;;;10.15;3.10;;;;;;;1.35;100.00;102027.97;4994328;28;20080;-75
2023/12/27 03:51:34;;;;;;;4.97;2.70;;;;;;;1.35;100.00;102021.84;5007994;28;20146;-76
2023/12/27 03:54:20;;;;;;;6.13;2.58;;;;;;;1.35;100.00;102024.47;5008050;28;21888;-75
2023/12/27 03:57:06;;;;;;;8.90;3.33;;;;;;;1.35;100.00;102027.97;5009288;28;20056;-75
2023/12/27 03:59:52;;;;;;;5.22;2.83;;;;;;;1.37;100.00;102040.13;4997644;28;20064;-75
2023/12/27 04:02:37;;;;;;;10.90;3.53;;;;;;;1.35;100.00;102041.00;5009377;28;20045;-75
2023/12/27 04:05:23;;;;;;;11.13;3.22;;;;;;;1.35;100.00;102033.19;5008303;28;20046;-76
2023/12/27 04:08:09;;;;;;;11.07;3.38;;;;;;;1.38;100.00;102034.06;5008683;28;20078;-75
2023/12/27 04:10:55;;;;;;;11.38;3.85;;;;;;;1.38;100.00;102029.72;5007166;28;20420;-76
2023/12/27 04:13:40;;;;;;;6.03;2.88;;;;;;;1.38;100.00;102027.13;5007236;28;20057;-76
2023/12/27 04:16:26;;;;;;;8.18;3.00;;;;;;;1.36;100.00;102020.97;4993448;28;20073;-75
2023/12/27 04:19:12;;;;;;;7.82;3.80;;;;;;;1.37;100.00;102014.94;5009108;28;20049;-76
2023/12/27 04:21:58;;;;;;;12.57;3.90;;;;;;;1.37;100.00;102014.94;5008516;28;20029;-76
2023/12/27 04:24:43;;;;;;;8.90;3.40;;;;;;;1.38;100.00;102003.63;4999802;28;20079;-75
2023/12/27 04:27:29;;;;;;;11.68;3.30;;;;;;;1.39;100.00;102002.75;5008602;28;20233;-76
2023/12/27 04:30:15;;;;;;;11.48;3.72;;;;;;;1.39;100.00;101994.94;5005805;28;20045;-76
2023/12/27 04:33:00;;;;;;;11.23;3.95;;;;;;;1.41;100.00;101995.81;4997335;28;20115;-75
2023/12/27 04:35:46;;;;;;;9.43;3.97;;;;;;;1.42;100.00;101991.50;5002265;28;20045;-75
2023/12/27 04:38:32;;;;;;;12.15;3.67;;;;;;;1.42;100.00;101996.72;5008398;28;20676;-75
2023/12/27 04:41:18;;;;;;;5.95;3.58;;;;;;;1.44;100.00;102000.19;5005944;28;20065;-76
2023/12/27 04:44:04;;;;;;;10.90;3.85;;;;;;;1.45;100.00;102001.94;4982632;28;20065;-76
2023/12/27 04:46:49;;;;;;;5.13;3.47;;;;;;;1.47;100.00;101989.81;5006530;28;20164;-76
2023/12/27 04:49:35;;;;;;;9.10;4.25;;;;;;;1.46;100.00;101986.31;5006747;28;20064;-76
2023/12/27 04:52:21;;;;;;;9.55;3.90;;;;;;;1.45;100.00;101981.97;5007991;28;20056;-75
2023/12/27 04:55:07;;;;;;;11.30;3.60;;;;;;;1.47;100.00;101988.06;5005317;28;20056;-75
2023/12/27 04:57:53;;;;;;;8.88;3.08;;;;;;;1.51;100.00;101986.34;5008807;28;20614;-76
2023/12/27 05:00:39;;;;;;;8.40;3.80;;;;;;;1.55;100.00;101984.66;5006998;28;20064;-76
2023/12/27 05:03:24;;;;;;;5.40;3.28;;;;;;;1.55;100.00;101979.44;5010340;28;20045;-76
2023/12/27 05:06:11;;;;;;;5.38;3.10;;;;;;;1.54;100.00;101962.03;5003530;28;20042;-76
2023/12/27 05:08:59;;;;;;;7.10;3.00;;;;;;;1.55;100.00;101961.16;4996839;28;20042;-76
2023/12/27 05:11:45;;;;;;;8.70;3.28;;;;;;;1.57;100.00;101965.53;5005238;28;20041;-75
2023/12/27 05:14:31;;;;;;;9.27;3.75;;;;;;;1.58;100.00;101956.00;5007061;28;20034;-75
2023/12/27 05:17:16;;;;;;;9.65;3.28;;;;;;;1.58;100.00;101953.38;5005412;28;20046;-75
2023/12/27 05:20:03;;;;;;;12.38;3.60;;;;;;;1.60;100.00;101949.03;5007068;28;20068;-75
2023/12/27 05:22:49;;;;;;;8.57;3.58;;;;;;;1.61;100.00;101928.19;5007181;28;20120;-76
2023/12/27 05:25:35;;;;;;;7.72;4.25;;;;;;;1.67;100.00;101935.19;5005517;28;20050;-75
2023/12/27 05:28:21;;;;;;;11.32;3.92;;;;;;;1.71;100.00;101923.03;5004984;28;20128;-76
2023/12/27 05:31:06;;;;;;;6.57;3.67;;;;;;;1.74;100.00;101925.69;5006219;28;20044;-75
2023/12/27 05:33:52;;;;;;;12.70;3.72;;;;;;;1.78;100.00;101929.19;5007130;28;20041;-75
2023/12/27 05:36:38;;;;;;;8.57;3.70;;;;;;;1.80;100.00;101919.63;5005529;28;20038;-76
2023/12/27 05:39:24;;;;;;;10.07;3.97;;;;;;;1.83;100.00;101930.97;5006678;28;21274;-75
2023/12/27 05:42:09;;;;;;;7.18;3.72;;;;;;;1.85;100.00;101929.22;5005592;28;20385;-75
2023/12/27 05:44:55;;;;;;;7.47;3.90;;;;;;;1.86;100.00;101922.28;5004711;28;20040;-75
2023/12/27 05:47:41;;;;;;;9.95;4.05;;;;;;;1.89;100.00;101930.13;5003619;28;20045;-76
2023/12/27 05:50:27;;;;;;;10.27;4.00;;;;;;;1.90;100.00;101937.09;4978219;28;20143;-75
2023/12/27 05:53:12;;;;;;;10.35;4.30;;;;;;;1.93;100.00;101931.03;5006201;28;20045;-76
2023/12/27 05:55:58;;;;;;;9.02;3.70;;;;;;;1.95;100.00;101921.50;4999979;28;20053;-76
2023/12/27 05:58:44;;;;;;;9.25;3.75;;;;;;;1.97;100.00;101919.75;5008187;28;21637;-76
2023/12/27 06:01:29;;;;;;;9.20;3.97;;;;;;;1.99;100.00;101938.91;5007394;28;20050;-76
2023/12/27 06:04:15;;;;;;;8.75;4.35;;;;;;;2.02;100.00;101937.22;5006928;28;20494;-76
2023/12/27 06:07:01;;;;;;;7.25;4.00;;;;;;;2.05;100.00;101930.28;4987440;28;20041;-75
2023/12/27 06:09:47;;;;;;;6.95;3.70;;;;;;;2.02;100.00;101921.53;4989766;28;20574;-76
2023/12/27 06:12:32;;;;;;;11.20;4.07;;;;;;;2.03;100.00;101917.19;5005810;28;20050;-76
2023/12/27 06:15:18;;;;;;;10.07;4.15;;;;;;;2.01;100.00;101919.78;5005025;28;20437;-76
2023/12/27 06:18:04;;;;;;;8.48;3.75;;;;;;;2.01;100.00;101914.56;4983975;28;20105;-76
2023/12/27 06:20:50;;;;;;;7.00;4.20;;;;;;;2.00;100.00;101917.16;4998748;28;20052;-76
2023/12/27 06:23:35;;;;;;;13.70;4.15;;;;;;;2.00;100.00;101911.94;5007588;28;20509;-75
2023/12/27 06:26:22;;;;;;;7.50;3.90;;;;;;;2.01;100.00;101903.22;5007540;28;22220;-75
2023/12/27 06:29:07;;;;;;;8.75;3.95;;;;;;;2.03;100.00;101889.31;5006633;28;20547;-76
2023/12/27 06:31:53;;;;;;;9.60;3.35;;;;;;;2.04;100.00;101884.97;5004207;28;20703;-76
2023/12/27 06:34:39;;;;;;;11.65;4.10;;;;;;;2.07;100.00;101881.53;5001544;28;20049;-76
2023/12/27 06:37:24;;;;;;;12.40;3.88;;;;;;;2.11;100.00;101878.94;5000023;28;20491;-75
2023/12/27 06:40:10;;;;;;;8.00;3.65;;;;;;;2.12;100.00;101869.38;5005795;28;20510;-76
2023/12/27 06:42:56;;;;;;;8.00;3.80;;;;;;;2.15;100.00;101871.97;5003598;28;20041;-76
2023/12/27 06:45:42;;;;;;;9.13;3.70;;;;;;;2.17;100.00;101868.53;5003797;28;21662;-76
2023/12/27 06:48:27;;;;;;;8.30;3.60;;;;;;;2.20;100.00;101867.66;5005534;28;20704;-76
2023/12/27 06:51:16;;;;;;;10.60;3.42;;;;;;;2.22;100.00;101868.53;5006498;28;20034;-76
2023/12/27 06:54:02;;;;;;;6.43;3.17;;;;;;;2.26;100.00;101861.59;5006654;28;20057;-76
2023/12/27 06:56:48;;;;;;;9.35;3.78;;;;;;;2.28;100.00;101863.34;4994942;28;20221;-75
2023/12/27 06:59:33;;;;;;;6.28;3.17;;;;;;;2.31;100.00;101855.50;5005513;28;20042;-75
2023/12/27 07:02:19;;;;;;;11.63;3.30;;;;;;;2.33;100.00;101855.53;5005393;28;21645;-76
2023/12/27 07:05:06;;;;;;;8.73;2.85;;;;;;;2.35;100.00;101852.94;5008334;28;20034;-75
2023/12/27 07:07:52;;;;;;;8.50;2.95;;;;;;;2.36;100.00;101850.34;4994968;28;20183;-75
2023/12/27 07:10:38;;;;;;;7.22;2.88;;;;;;;2.38;100.00;101852.94;5008872;28;20059;-76
2023/12/27 07:13:23;;;;;;;8.23;2.97;;;;;;;2.39;100.00;101852.09;4997101;28;20107;-76
2023/12/27 07:16:09;;;;;;;8.05;3.00;;;;;;;2.41;100.00;101845.13;5007574;28;20050;-76
2023/12/27 07:18:55;;;;;;;7.03;2.72;;;;;;;2.43;100.00;101846.00;4997930;28;20120;-76
2023/12/27 07:21:40;;;;;;;6.72;2.70;;;;;;;2.45;100.00;101841.63;5006162;28;20045;-76
2023/12/27 07:24:26;;;;;;;8.18;2.85;;;;;;;2.44;100.00;101830.31;5010625;28;20156;-76
2023/12/27 07:27:12;;;;;;;9.18;2.85;;;;;;;2.46;100.00;101827.72;5007971;28;20034;-76
2023/12/27 07:29:58;;;;;;;6.75;2.80;;;;;;;2.48;100.00;101819.88;5009967;28;20050;-75
2023/12/27 07:32:43;;;;;;;8.32;2.80;;;;;;;2.51;100.00;101814.66;4995259;28;20059;-76
2023/12/27 07:35:30;;;;;;;10.90;3.17;;;;;;;2.55;100.00;101808.56;5008423;28;20042;-76
2023/12/27 07:38:15;;;;;;;12.18;2.80;;;;;;;2.57;100.00;101812.94;4997027;28;20119;-76
2023/12/27 07:41:01;;;;;;;6.80;2.53;;;;;;;2.63;100.00;101812.09;5001220;28;20049;-74
2023/12/27 07:43:47;;;;;;;11.20;2.78;;;;;;;2.66;100.00;101811.25;4996495;28;20045;-75
2023/12/27 07:46:33;;;;;;;10.52;3.63;;;;;;;2.69;100.00;101808.63;5001000;28;20049;-75
2023/12/27 07:49:19;;;;;;;7.88;2.78;;;;;;;2.73;100.00;101805.16;5003696;28;20042;-75
2023/12/27 07:52:04;;;;;;;5.53;2.30;;;;;;;2.76;100.00;101791.19;5001944;28;20067;-75
2023/12/27 07:54:50;;;;;;;7.85;2.78;;;;;;;2.76;100.00;101793.81;5001498;28;20055;-75
2023/12/27 07:57:36;;;;;;;7.40;2.70;;;;;;;2.78;100.00;101795.56;5004858;28;20077;-76
2023/12/27 08:00:22;;;;;;;5.72;2.42;;;;;;;2.81;100.00;101787.72;5001364;28;20046;-75
2023/12/27 08:03:10;;;;;;;9.88;2.97;;;;;;;2.83;100.00;101791.22;5000989;28;20045;-76
2023/12/27 08:05:56;;;;;;;6.40;2.97;;;;;;;2.87;100.00;101783.41;4997462;28;20557;-76
2023/12/27 08:08:42;;;;;;;9.73;3.00;;;;;;;2.89;100.00;101792.97;4987098;28;20049;-76
2023/12/27 08:11:28;;;;;;;6.72;2.97;;;;;;;2.92;100.00;101784.25;5001809;28;20053;-76
2023/12/27 08:14:13;;;;;;;8.80;3.53;;;;;;;2.92;100.00;101785.13;5001436;28;20053;-76
2023/12/27 08:16:59;;;;;;;9.50;3.33;;;;;;;2.96;100.00;101780.78;4996460;28;20037;-76
2023/12/27 08:19:45;;;;;;;5.20;2.92;;;;;;;2.97;100.00;101778.19;5001962;28;21051;-76
2023/12/27 08:22:31;;;;;;;5.72;3.15;;;;;;;2.98;100.00;101773.78;5001562;28;20054;-75
2023/12/27 08:25:17;;;;;;;9.75;3.38;;;;;;;2.99;100.00;101765.97;5000844;28;20099;-76
2023/12/27 08:28:04;;;;;;;11.07;3.65;;;;;;;3.03;100.00;101771.19;4983357;28;20120;-76
2023/12/27 08:30:50;;;;;;;11.40;3.45;;;;;;;3.06;100.00;101771.19;4994045;28;20128;-76
2023/12/27 08:33:36;;;;;;;9.55;3.53;;;;;;;3.07;100.00;101771.22;4982369;28;20084;-76
2023/12/27 08:36:22;;;;;;;5.70;3.00;;;;;;;3.10;100.00;101771.19;4998267;28;20065;-75
2023/12/27 08:39:08;;;;;;;4.30;2.65;;;;;;;3.12;100.00;101764.22;4975779;28;20042;-76
2023/12/27 08:41:54;;;;;;;11.20;3.25;;;;;;;3.15;100.00;101759.88;4996568;28;20037;-76
2023/12/27 08:44:40;;;;;;;11.35;3.63;;;;;;;3.17;100.00;101752.88;5002258;28;20050;-76
2023/12/27 08:47:25;;;;;;;12.52;3.88;;;;;;;3.18;100.00;101752.00;5001958;28;20438;-77
2023/12/27 08:50:11;;;;;;;6.50;3.10;;;;;;;3.19;100.00;101751.13;5000603;28;20623;-76
2023/12/27 08:52:57;;;;;;;11.25;3.15;;;;;;;3.21;100.00;101738.94;5001964;28;20075;-76
2023/12/27 08:55:43;;;;;;;6.93;3.70;;;;;;;3.23;100.00;101735.41;4992906;28;20083;-75
2023/12/27 08:58:28;;;;;;;8.85;3.28;;;;;;;3.24;100.00;101729.34;4989738;28;20046;-76
2023/12/27 09:01:16;;;;;;;9.10;3.80;;;;;;;3.25;100.00;101724.97;4998909;28;20132;-75
2023/12/27 09:04:01;;;;;;;6.68;3.40;;;;;;;3.29;100.00;101721.47;4982006;28;20045;-76
2023/12/27 09:06:47;;;;;;;8.13;3.28;;;;;;;3.32;100.00;101724.06;5001784;28;20049;-76
2023/12/27 09:09:33;;;;;;;7.18;3.45;;;;;;;3.32;100.00;101705.75;4999244;28;20046;-76
2023/12/27 09:12:19;;;;;;;9.02;3.78;;;;;;;3.36;100.00;101697.03;5000161;28;20132;-75
2023/12/27 09:15:07;;;;;;;8.30;3.67;;;;;;;3.40;100.00;101697.91;4999028;28;20042;-76
2023/12/27 09:17:53;;;;;;;8.40;3.90;;;;;;;3.42;100.00;101684.81;4989862;28;20056;-76
2023/12/27 09:20:40;;;;;;;11.75;3.63;;;;;;;3.44;100.00;101680.44;4985867;28;20490;-76
2023/12/27 09:23:26;;;;;;;6.95;3.40;;;;;;;3.45;100.00;101684.78;4997072;28;20052;-76
2023/12/27 09:26:15;;;;;;;11.32;4.20;;;;;;;3.46;100.00;101676.06;5000106;28;20034;-75
2023/12/27 09:29:02;;;;;;;7.82;3.92;;;;;;;3.49;100.00;101668.22;4995052;28;20054;-76
2023/12/27 09:31:47;;;;;;;6.20;3.40;;;;;;;3.51;100.00;101658.59;4989411;28;20137;-76
2023/12/27 09:34:33;;;;;;;10.63;4.22;;;;;;;3.52;100.00;101655.09;4985367;28;20057;-76
2023/12/27 09:37:19;;;;;;;11.70;5.00;;;;;;;3.54;100.00;101658.56;5000080;28;20873;-75
2023/12/27 09:40:05;;;;;;;7.95;3.88;;;;;;;3.56;100.00;101651.59;4996924;28;20041;-76
2023/12/27 09:42:52;;;;;;;7.63;4.22;;;;;;;3.60;100.00;101642.84;5002565;28;20034;-76
2023/12/27 09:45:38;;;;;;;9.82;4.32;;;;;;;3.62;100.00;101643.72;4993563;28;20077;-76
2023/12/27 09:48:25;;;;;;;13.35;4.60;;;;;;;3.65;100.00;101635.00;4999834;28;20034;-75
2023/12/27 09:51:11;;;;;;;9.80;4.53;;;;;;;3.67;100.00;101626.22;5000636;28;20501;-75
2023/12/27 09:53:57;;;;;;;9.43;5.05;;;;;;;3.71;100.00;101628.84;4988236;28;20056;-77
2023/12/27 09:56:43;;;;;;;8.55;4.43;;;;;;;3.73;100.00;101624.47;4999872;28;20068;-76
2023/12/27 09:59:30;;;;;;;9.50;4.78;;;;;;;3.76;100.00;101621.84;5014643;28;20520;-76
2023/12/27 10:02:18;;;;;;;16.52;5.03;;;;;;;3.79;100.00;101606.09;4995582;28;20033;-76
2023/12/27 10:05:23;;;;;;;10.68;5.00;;;;;;;3.84;100.00;101596.47;5264879;23;20060;-76
2023/12/27 10:08:10;;;;;;;9.10;4.80;;;;;;;3.87;100.00;101591.22;5000678;28;20042;-76
2023/12/27 10:10:56;;;;;;;15.00;5.28;;;;;;;3.92;100.00;101583.34;5025673;28;20045;-75
2023/12/27 10:13:43;;;;;;;9.48;5.30;;;;;;;3.96;100.00;101576.34;5005156;28;20121;-76
2023/12/27 10:16:28;;;;;;;9.25;5.03;;;;;;;3.99;100.00;101573.69;5010387;28;20029;-75
2023/12/27 10:19:35;;;;;;;13.30;5.43;;;;;;;4.02;100.00;101560.56;5010453;28;20407;-75
2023/12/27 10:22:21;;;;;;;15.40;5.88;;;;;;;4.03;100.00;101559.69;5001660;28;20045;-76
2023/12/27 10:25:07;;;;;;;12.65;5.63;;;;;;;4.03;100.00;101547.44;4997705;28;20081;-75
2023/12/27 10:27:53;;;;;;;14.98;5.28;;;;;;;4.03;100.00;101536.13;5015502;28;20547;-72
2023/12/27 10:30:39;;;;;;;13.40;5.80;;;;;;;4.04;100.00;101527.38;5007648;28;20041;-75
2023/12/27 10:33:24;;;;;;;17.80;5.63;;;;;;;4.05;100.00;101518.63;5023985;28;20063;-75
2023/12/27 10:36:10;;;;;;;14.60;6.05;;;;;;;4.06;100.00;101509.88;5015596;28;20045;-75
2023/12/27 10:38:56;;;;;;;14.23;6.65;;;;;;;4.08;100.00;101513.34;5007090;28;20033;-75
2023/12/27 10:41:42;;;;;;;17.90;10.00;;;;;;;4.07;100.00;101511.59;5004220;28;20041;-72
2023/12/27 10:44:27;;;;;;;19.13;8.73;;;;;;;4.08;100.00;101500.25;5010724;28;20049;-72
2023/12/27 10:47:20;;;;;;;15.82;9.60;;;;;;;4.06;100.00;101500.28;5002774;28;22331;-72
2023/12/27 10:50:12;;;;;;;15.43;12.07;;;;;;;4.07;100.00;101488.03;5029695;28;20080;-73
2023/12/27 10:53:06;;;;;;;19.27;10.25;;;;;;;4.08;100.00;101479.28;4998311;28;20610;-73
2023/12/27 10:55:52;;;;;;;31.50;18.40;;;;;;;4.07;100.00;101469.69;5013119;28;20037;-73
2023/12/27 10:58:40;;;;;;;18.60;9.85;;;;;;;4.06;100.00;101450.47;5011138;28;20054;-73
2023/12/27 11:01:28;;;;;;;14.75;7.97;;;;;;;4.07;100.00;101446.09;5018614;28;20116;-73
2023/12/27 11:04:16;;;;;;;18.48;11.02;;;;;;;4.08;100.00;101435.59;5010880;28;20045;-72
2023/12/27 11:07:02;;;;;;;31.13;13.15;;;;;;;4.11;100.00;101437.34;5019820;28;20036;-73
2023/12/27 11:09:48;;;;;;;28.73;18.13;;;;;;;4.11;100.00;101434.72;5005395;28;20474;-73
2023/12/27 11:12:35;;;;;;;194.43;99.00;;;;;;;4.11;100.00;101421.59;5033888;28;20048;-73
2023/12/27 11:15:21;;;;;;;57.05;27.05;;;;;;;4.11;100.00;101412.88;5035031;28;20660;-74
2023/12/27 11:18:09;;;;;;;36.75;17.98;;;;;;;4.12;100.00;101409.34;5019555;28;20120;-73
2023/12/27 11:20:56;;;;;;;59.55;25.90;;;;;;;4.13;100.00;101405.88;5022728;28;20064;-72
2023/12/27 11:23:43;;;;;;;76.07;29.35;;;;;;;4.12;100.00;101404.13;5031961;28;20211;-74
2023/12/27 11:26:33;;;;;;;42.17;20.33;;;;;;;4.13;100.00;101390.16;5015439;28;20040;-72
2023/12/27 11:29:19;;;;;;;60.80;32.95;;;;;;;4.11;100.00;101384.91;5022161;28;20040;-73
2023/12/27 11:32:06;;;;;;;86.15;44.92;;;;;;;4.11;100.00;101387.53;5023457;28;20600;-74
2023/12/27 11:34:53;;;;;;;108.75;51.08;;;;;;;4.13;100.00;101369.19;5017421;28;20460;-72
2023/12/27 11:37:40;;;;;;;79.88;38.05;;;;;;;4.13;100.00;101367.41;5020462;28;20066;-73
2023/12/27 11:40:35;;;;;;;119.75;53.03;;;;;;;4.13;100.00;101356.94;5037131;28;21732;-72
2023/12/27 11:43:23;;;;;;;130.82;47.33;;;;;;;4.16;100.00;101346.44;5028290;28;20100;-73
2023/12/27 11:46:10;;;;;;;210.55;77.68;;;;;;;4.17;100.00;101331.56;5022347;28;20037;-72
2023/12/27 11:49:00;;;;;;;364.83;139.05;;;;;;;4.19;100.00;101335.03;5021926;28;20048;-74
2023/12/27 11:51:46;;;;;;;219.98;88.82;;;;;;;4.21;100.00;101336.75;5024827;28;20087;-72
2023/12/27 11:54:31;;;;;;;86.72;33.05;;;;;;;4.24;100.00;101341.09;5035131;28;20660;-73
2023/12/27 11:57:17;;;;;;;135.27;47.50;;;;;;;4.26;100.00;101321.00;5006436;28;20040;-73
2023/12/27 12:00:04;;;;;;;108.63;37.58;;;;;;;4.26;100.00;101317.50;5015855;28;20070;-73
2023/12/27 12:02:57;;;;;;;127.47;41.88;;;;;;;4.28;100.00;101306.09;5022895;28;20494;-73
2023/12/27 12:06:06;;;;;;;90.83;28.33;;;;;;;4.30;100.00;101287.75;5009571;28;20051;-73
2023/12/27 12:08:52;;;;;;;95.38;34.35;;;;;;;4.33;100.00;101287.69;5037547;28;20487;-72
2023/12/27 12:11:43;;;;;;;100.88;38.72;;;;;;;4.35;100.00;101285.91;5008528;28;20037;-73
2023/12/27 12:14:28;;;;;;;95.55;35.70;;;;;;;4.38;100.00;101280.66;5040402;28;20154;-73
2023/12/27 12:17:15;;;;;;;113.97;39.17;;;;;;;4.38;100.00;101280.66;5037470;28;20411;-73
2023/12/27 12:20:01;;;;;;;50.20;24.25;;;;;;;4.40;100.00;101278.00;5030858;28;20044;-72
2023/12/27 12:22:48;;;;;;;51.58;24.73;;;;;;;4.41;100.00;101269.25;5039733;28;20094;-74
2023/12/27 12:25:41;;;;;;;44.20;23.67;;;;;;;4.42;100.00;101244.78;5042350;28;20452;-73
2023/12/27 12:28:30;;;;;;;27.55;15.85;;;;;;;4.44;100.00;101241.25;5023606;28;20050;-73
2023/12/27 12:31:15;;;;;;;27.13;15.05;;;;;;;4.50;100.00;101245.53;5023269;28;20049;-73
2023/12/27 12:34:01;;;;;;;24.17;14.57;;;;;;;4.55;100.00;101232.34;5038731;28;20051;-74
2023/12/27 12:36:47;;;;;;;21.67;13.25;;;;;;;4.59;100.00;101208.66;5039854;28;20111;-73
2023/12/27 12:39:33;;;;;;;29.88;17.45;;;;;;;4.65;100.00;101196.34;5038927;28;20087;-72
2023/12/27 12:42:21;;;;;;;22.92;11.63;;;;;;;4.68;100.00;101191.94;5042725;28;20045;-72
2023/12/27 12:45:08;;;;;;;23.98;13.82;;;;;;;4.72;100.00;101190.13;5039575;28;20036;-73
2023/12/27 12:47:54;;;;;;;22.27;12.85;;;;;;;4.76;100.00;101186.59;5046236;28;20132;-73